Time;durP1;ratioP1;P1;durP2;ratioP2;P2;SDS_P1;SDS_P2;PMS_P1;PMS_P2;Temp;Humidity;BMP_temperature;BMP_pressure;BME280_temperature;BME280_humidity;BME280_pressure;Samples;Min_cycle;Max_cycle;Signal;HPM_P1;HPM_P2
2022/06/30 00:00:10;;;;;;;3.40;3.10;;;24.20;70.70;;;-142.21;100.00;112049.66;5048501;28;20208;-74
2022/06/30 00:02:38;;;;;;;4.00;3.70;;;24.20;70.90;;;-142.21;100.00;112049.66;5033995;28;20248;-74
2022/06/30 00:05:08;;;;;;;4.40;3.50;;;24.20;70.70;;;-142.21;100.00;112049.66;5032589;28;20220;-74
2022/06/30 00:07:35;;;;;;;4.03;3.63;;;24.20;71.00;;;-142.21;100.00;112049.66;5050462;28;20225;-74
2022/06/30 00:17:52;;;;;;;3.30;3.00;;;24.10;71.10;;;-142.21;100.00;112049.66;5074635;28;20207;-75
2022/06/30 00:24:01;;;;;;;3.57;3.27;;;24.00;71.10;;;-142.21;100.00;112049.66;5064905;28;20191;-76
2022/06/30 00:26:30;;;;;;;4.13;3.20;;;24.00;70.60;;;-142.21;100.00;112049.66;5077147;28;20193;-75
2022/06/30 00:28:58;;;;;;;4.07;3.20;;;24.00;70.60;;;-142.21;100.00;112049.66;5082082;28;20239;-75
2022/06/30 00:31:25;;;;;;;4.43;3.33;;;23.90;70.60;;;-142.21;100.00;112049.66;5090197;28;20294;-74
2022/06/30 00:33:52;;;;;;;3.70;3.40;;;23.90;70.70;;;-142.21;100.00;112049.66;5072326;28;20197;-74
2022/06/30 00:36:19;;;;;;;5.07;3.40;;;23.90;70.80;;;-142.21;100.00;112049.66;5087333;28;20744;-74
2022/06/30 00:38:46;;;;;;;3.63;3.33;;;23.80;70.70;;;-142.21;100.00;112049.66;5068909;28;20236;-75
2022/06/30 00:41:46;;;;;;;3.53;3.23;;;23.80;70.70;;;-142.21;100.00;112049.66;5072021;28;20227;-75
2022/06/30 00:47:55;;;;;;;4.07;3.47;;;23.80;71.30;;;-142.21;100.00;112049.66;5067860;28;20286;-75
2022/06/30 00:50:22;;;;;;;4.20;2.90;;;23.70;71.10;;;-142.21;100.00;112049.66;5069361;28;20224;-75
2022/06/30 00:52:51;;;;;;;3.77;3.43;;;23.60;71.10;;;-142.21;100.00;112049.66;5075067;28;20293;-76
2022/06/30 00:55:20;;;;;;;3.90;3.60;;;23.60;71.20;;;-142.21;100.00;112049.66;5061154;28;20653;-75
2022/06/30 00:57:51;;;;;;;3.43;3.13;;;23.60;71.10;;;-142.21;100.00;112049.66;5084643;28;20203;-74
2022/06/30 01:00:18;;;;;;;4.07;3.27;;;23.60;71.20;;;-142.21;100.00;112049.66;5077628;28;20283;-76
2022/06/30 01:02:46;;;;;;;3.60;3.30;;;23.60;71.00;;;-142.21;100.00;112049.66;5075288;28;20861;-74
2022/06/30 01:05:15;;;;;;;4.27;3.23;;;23.60;71.00;;;-142.21;100.00;112049.66;5084983;28;20203;-74
2022/06/30 01:07:44;;;;;;;7.20;3.30;;;23.60;71.20;;;-142.21;100.00;112049.66;5055756;28;20243;-76
2022/06/30 01:12:57;;;;;;;4.30;3.40;;;23.50;71.30;;;-142.21;100.00;112049.66;5116070;28;20206;-74
2022/06/30 01:15:24;;;;;;;4.60;3.37;;;23.40;71.10;;;-142.21;100.00;112049.66;5115502;28;20210;-74
2022/06/30 01:17:52;;;;;;;5.33;3.13;;;23.40;71.10;;;-142.21;100.00;112049.66;5114958;28;20284;-76
2022/06/30 01:20:27;;;;;;;5.33;3.27;;;23.40;71.10;;;-142.21;100.00;112049.66;5109818;28;20290;-75
2022/06/30 01:22:56;;;;;;;3.30;2.70;;;23.30;71.30;;;-142.21;100.00;112049.66;5113900;28;20191;-75
2022/06/30 01:25:24;;;;;;;3.73;3.30;;;23.30;71.30;;;-142.21;100.00;112049.66;5115999;28;20209;-75
2022/06/30 01:27:51;;;;;;;6.03;3.40;;;23.30;71.20;;;-142.21;100.00;112049.66;5115462;28;20218;-76
2022/06/30 01:30:19;;;;;;;7.57;3.13;;;23.30;71.20;;;-142.21;100.00;112049.66;5115401;28;20310;-74
2022/06/30 01:32:46;;;;;;;4.17;3.10;;;23.30;71.30;;;-142.21;100.00;112049.66;5116003;28;20586;-74
2022/06/30 01:35:13;;;;;;;4.20;3.80;;;23.30;71.40;;;-142.21;100.00;112049.66;5115589;28;20212;-74
2022/06/30 01:37:50;;;;;;;4.37;3.17;;;23.30;71.60;;;-142.21;100.00;112049.66;5115902;28;20193;-74
2022/06/30 01:40:20;;;;;;;7.07;3.07;;;23.20;71.80;;;-142.21;100.00;112049.66;5115737;28;22114;-74
2022/06/30 01:42:48;;;;;;;9.63;3.40;;;23.20;71.50;;;-142.21;100.00;112049.66;5095296;28;20189;-75
2022/06/30 01:45:16;;;;;;;6.17;3.60;;;23.10;71.30;;;-142.21;100.00;112049.66;5111376;28;20200;-75
2022/06/30 01:47:43;;;;;;;3.70;3.30;;;23.10;71.30;;;-142.21;100.00;112049.66;5114832;28;20311;-77
2022/06/30 01:50:15;;;;;;;5.60;3.50;;;23.10;71.30;;;-142.21;100.00;112049.66;5114558;28;20227;-75
2022/06/30 01:52:42;;;;;;;5.07;3.27;;;23.10;71.50;;;-142.21;100.00;112049.66;5115123;28;20207;-75
2022/06/30 01:55:10;;;;;;;6.30;3.27;;;23.10;71.60;;;-142.21;100.00;112049.66;5115492;28;20215;-75
2022/06/30 01:57:39;;;;;;;4.00;3.10;;;23.00;71.70;;;-142.21;100.00;112049.66;5097705;28;20238;-75
2022/06/30 02:04:51;;;;;;;4.73;3.07;;;23.00;72.00;;;-142.21;100.00;112049.66;5113862;28;20750;-76
2022/06/30 02:07:19;;;;;;;4.40;3.03;;;22.90;72.10;;;-142.21;100.00;112049.66;5103596;28;20533;-74
2022/06/30 02:09:47;;;;;;;4.33;3.43;;;22.80;71.60;;;-142.21;100.00;112049.66;5112189;28;20771;-75
2022/06/30 02:15:00;;;;;;;5.60;3.10;;;22.80;71.50;;;-142.21;100.00;112049.66;5114725;28;20287;-75
2022/06/30 02:17:27;;;;;;;6.40;3.00;;;22.80;72.40;;;-142.21;100.00;112049.66;5114847;28;20314;-75
2022/06/30 02:19:54;;;;;;;3.50;3.20;;;22.80;71.90;;;-142.21;100.00;112049.66;5114047;28;20198;-75
2022/06/30 02:22:22;;;;;;;8.17;3.60;;;22.80;72.20;;;-142.21;100.00;112049.66;5115065;28;20204;-75
2022/06/30 02:24:49;;;;;;;5.97;3.40;;;22.70;72.10;;;-142.21;100.00;112049.66;5114669;28;20605;-75
2022/06/30 02:27:16;;;;;;;8.83;3.43;;;22.70;72.80;;;-142.21;100.00;112049.66;5115051;28;20303;-75
2022/06/30 02:29:43;;;;;;;6.67;3.40;;;22.70;72.10;;;-142.21;100.00;112049.66;5114544;28;20226;-75
2022/06/30 02:32:11;;;;;;;6.47;3.33;;;22.70;72.00;;;-142.21;100.00;112049.66;5114742;28;20210;-75
2022/06/30 02:34:38;;;;;;;3.93;3.23;;;22.60;71.90;;;-142.21;100.00;112049.66;5115034;28;20200;-75
2022/06/30 02:37:08;;;;;;;10.03;3.40;;;22.60;71.70;;;-142.21;100.00;112049.66;5113896;28;20232;-75
2022/06/30 02:39:35;;;;;;;4.60;2.90;;;22.60;71.80;;;-142.21;100.00;112049.66;5114984;28;20200;-75
2022/06/30 02:42:03;;;;;;;4.60;3.30;;;22.60;72.00;;;-142.21;100.00;112049.66;5113863;28;20291;-74
2022/06/30 02:44:30;;;;;;;4.20;3.37;;;22.50;71.90;;;-142.21;100.00;112049.66;5112997;28;20208;-75
2022/06/30 02:46:58;;;;;;;4.63;3.20;;;22.50;72.00;;;-142.21;100.00;112049.66;5104663;28;20204;-75
2022/06/30 02:49:26;;;;;;;6.90;3.03;;;22.40;71.90;;;-142.21;100.00;112049.66;5114127;28;20220;-74
2022/06/30 02:51:53;;;;;;;3.37;3.07;;;22.40;72.10;;;-142.21;100.00;112049.66;5114207;28;20231;-74
2022/06/30 02:54:21;;;;;;;3.40;3.00;;;22.30;72.00;;;-142.21;100.00;112049.66;5113870;28;20290;-74
2022/06/30 02:56:49;;;;;;;4.23;3.50;;;22.30;72.40;;;-142.21;100.00;112049.66;5113679;28;20199;-74
2022/06/30 02:59:16;;;;;;;5.90;3.50;;;22.30;72.50;;;-142.21;100.00;112049.66;5114260;28;20207;-74
2022/06/30 03:01:43;;;;;;;8.33;3.63;;;22.30;72.50;;;-142.21;100.00;112049.66;5113494;28;20204;-74
2022/06/30 03:04:11;;;;;;;6.87;3.60;;;22.30;72.40;;;-142.21;100.00;112049.66;5114276;28;20282;-75
2022/06/30 03:06:39;;;;;;;6.63;3.13;;;22.30;72.40;;;-142.21;100.00;112049.66;5114339;28;20295;-75
2022/06/30 03:09:07;;;;;;;6.23;3.40;;;22.30;72.60;;;-142.21;100.00;112049.66;5113119;28;20235;-75
2022/06/30 03:11:34;;;;;;;5.73;3.00;;;22.30;72.50;;;-142.21;100.00;112049.66;5114155;28;20242;-74
2022/06/30 03:14:02;;;;;;;6.87;3.70;;;22.20;72.50;;;-142.21;100.00;112049.66;5113324;28;20234;-74
2022/06/30 03:16:29;;;;;;;5.47;3.40;;;22.20;72.50;;;-142.21;100.00;112049.66;5113581;28;20211;-74
2022/06/30 03:18:56;;;;;;;4.97;3.77;;;22.20;72.50;;;-142.21;100.00;112049.66;5113409;28;20286;-74
2022/06/30 03:21:23;;;;;;;5.30;3.30;;;22.20;72.50;;;-142.21;100.00;112049.66;5078010;28;20284;-74
2022/06/30 03:23:52;;;;;;;5.63;3.20;;;22.10;72.40;;;-142.21;100.00;112049.66;5113516;28;20192;-74
2022/06/30 03:26:19;;;;;;;5.83;3.40;;;22.10;72.50;;;-142.21;100.00;112049.66;5113701;28;20207;-74
2022/06/30 03:28:46;;;;;;;6.93;4.07;;;22.00;72.30;;;-142.21;100.00;112049.66;5113748;28;20307;-75
2022/06/30 03:31:13;;;;;;;3.90;3.50;;;22.10;72.50;;;-142.21;100.00;112049.66;5113672;28;20239;-74
2022/06/30 03:33:40;;;;;;;4.43;3.90;;;22.00;72.30;;;-142.21;100.00;112049.66;5113535;28;20198;-75
2022/06/30 03:36:07;;;;;;;4.30;3.53;;;22.00;72.50;;;-142.21;100.00;112049.66;5113167;28;20260;-74
2022/06/30 03:38:34;;;;;;;4.23;3.67;;;22.00;72.60;;;-142.21;100.00;112049.66;5113712;28;20279;-75
2022/06/30 03:41:03;;;;;;;6.00;3.33;;;22.00;72.80;;;-142.21;100.00;112049.66;5068813;28;20537;-74
2022/06/30 03:43:30;;;;;;;4.00;3.27;;;22.00;72.90;;;-142.21;100.00;112049.66;5113623;28;20283;-75
2022/06/30 03:45:57;;;;;;;4.83;3.10;;;22.00;72.70;;;-142.21;100.00;112049.66;5112721;28;20278;-74
2022/06/30 03:48:24;;;;;;;7.43;4.03;;;22.00;72.70;;;-142.21;100.00;112049.66;5113238;28;20223;-74
2022/06/30 03:50:51;;;;;;;4.80;3.77;;;22.00;72.70;;;-142.21;100.00;112049.66;5113077;28;20295;-74
2022/06/30 03:53:18;;;;;;;3.60;3.30;;;22.00;72.70;;;-142.21;100.00;112049.66;5113177;28;20691;-75
2022/06/30 03:55:46;;;;;;;3.63;3.33;;;22.00;72.90;;;-142.21;100.00;112049.66;5113355;28;20199;-75
2022/06/30 03:58:14;;;;;;;4.37;3.93;;;22.00;72.90;;;-142.21;100.00;112049.66;5094448;28;20235;-74
2022/06/30 04:00:41;;;;;;;5.60;4.13;;;22.00;72.90;;;-142.21;100.00;112049.66;5112541;28;20235;-74
2022/06/30 04:03:08;;;;;;;5.57;3.80;;;22.00;73.80;;;-142.21;100.00;112049.66;5112784;28;20370;-74
2022/06/30 04:05:35;;;;;;;4.83;3.60;;;22.00;73.10;;;-142.21;100.00;112049.66;5060782;28;20287;-74
2022/06/30 04:08:03;;;;;;;4.97;3.83;;;22.00;72.90;;;-142.21;100.00;112049.66;5111797;28;20230;-74
2022/06/30 04:10:30;;;;;;;5.30;3.80;;;22.00;72.80;;;-142.21;100.00;112049.66;5112868;28;20242;-74
2022/06/30 04:12:57;;;;;;;3.93;3.53;;;22.10;73.00;;;-142.21;100.00;112049.66;5112010;28;20695;-75
2022/06/30 04:15:26;;;;;;;3.47;3.17;;;22.10;73.00;;;-142.21;100.00;112049.66;5112681;28;20242;-75
2022/06/30 04:17:53;;;;;;;3.30;3.00;;;22.10;73.10;;;-142.21;100.00;112049.66;5112703;28;20203;-73
2022/06/30 04:20:21;;;;;;;4.37;3.20;;;22.10;72.80;;;-142.21;100.00;112049.66;5113336;28;20286;-75
2022/06/30 04:22:50;;;;;;;3.90;3.20;;;22.10;73.00;;;-142.21;100.00;112049.66;5112292;28;20210;-74
2022/06/30 04:25:18;;;;;;;4.27;3.53;;;22.10;73.00;;;-142.21;100.00;112049.66;5112895;28;20290;-75
2022/06/30 04:27:48;;;;;;;4.63;3.00;;;22.10;73.00;;;-142.21;100.00;112049.66;5112807;28;20593;-75
2022/06/30 04:32:37;;;;;;;6.10;3.63;;;22.10;73.00;;;-142.21;100.00;112049.66;5113132;28;20309;-75
2022/06/30 04:33:05;;;;;;;6.37;3.40;;;22.10;73.10;;;-142.21;100.00;112049.66;5112097;28;20203;-75
2022/06/30 04:35:34;;;;;;;3.30;3.00;;;22.10;73.10;;;-142.21;100.00;112049.66;5112035;28;20196;-74
2022/06/30 04:38:03;;;;;;;5.80;3.50;;;22.10;72.80;;;-142.21;100.00;112049.66;5112211;28;20245;-74
2022/06/30 04:43:16;;;;;;;6.30;3.37;;;22.20;72.70;;;-142.21;100.00;112049.66;5112382;28;20272;-73
2022/06/30 04:45:43;;;;;;;8.10;3.80;;;22.20;72.50;;;-142.21;100.00;112049.66;5112780;28;20345;-73
2022/06/30 04:48:12;;;;;;;6.70;3.80;;;22.30;73.00;;;-142.21;100.00;112049.66;5098811;28;20318;-73
2022/06/30 04:50:39;;;;;;;4.40;3.70;;;22.30;73.30;;;-142.21;100.00;112049.66;5112739;28;20199;-76
2022/06/30 04:53:07;;;;;;;6.87;4.00;;;22.30;73.00;;;-142.21;100.00;112049.66;5111615;28;20668;-74
2022/06/30 04:55:34;;;;;;;6.57;3.97;;;22.30;73.00;;;-142.21;100.00;112049.66;5112563;28;20202;-74
2022/06/30 04:58:01;;;;;;;4.97;3.87;;;22.40;72.60;;;-142.21;100.00;112049.66;5111535;28;20303;-75
2022/06/30 05:00:29;;;;;;;5.13;3.70;;;22.40;72.00;;;-142.21;100.00;112049.66;5112668;28;20287;-76
2022/06/30 05:02:56;;;;;;;4.30;3.20;;;22.50;71.80;;;-142.21;100.00;112049.66;5111715;28;20212;-75
2022/06/30 05:05:26;;;;;;;5.47;3.43;;;22.60;72.30;;;-142.21;100.00;112049.66;5112872;28;20290;-76
2022/06/30 05:07:53;;;;;;;4.93;3.57;;;22.60;71.90;;;-142.21;100.00;112049.66;5111699;28;20199;-75
2022/06/30 05:10:20;;;;;;;3.73;3.13;;;22.70;71.40;;;-142.21;100.00;112049.66;5112564;28;20315;-75
2022/06/30 05:12:47;;;;;;;3.37;3.07;;;22.70;70.80;;;-142.21;100.00;112049.66;5111923;28;20278;-75
2022/06/30 05:15:14;;;;;;;3.37;3.07;;;22.70;70.80;;;-142.21;100.00;112049.66;5111959;28;20200;-75
2022/06/30 05:17:41;;;;;;;3.40;3.10;;;22.70;70.70;;;-142.21;100.00;112049.66;5112460;28;20297;-75
2022/06/30 05:20:10;;;;;;;4.30;3.23;;;22.80;70.70;;;-142.21;100.00;112049.66;5111907;28;20204;-74
2022/06/30 05:22:39;;;;;;;3.43;3.13;;;22.90;70.60;;;-142.21;100.00;112049.66;5112162;28;20242;-76
2022/06/30 05:27:52;;;;;;;4.10;3.60;;;23.00;69.90;;;-142.21;99.64;112049.66;5118441;28;20195;-75
2022/06/30 05:30:19;;;;;;;3.10;2.90;;;23.10;69.60;;;-142.21;99.64;112049.66;5117926;28;20314;-76
2022/06/30 05:32:47;;;;;;;3.67;3.10;;;23.20;69.50;;;-142.21;98.44;112049.66;5076750;28;20710;-75
2022/06/30 05:35:14;;;;;;;5.37;2.93;;;23.20;68.80;;;-142.21;98.82;112049.66;5111632;28;20227;-79
2022/06/30 05:37:43;;;;;;;2.90;2.70;;;23.30;69.20;;;-142.21;98.84;112049.66;5112505;28;20208;-79
2022/06/30 05:40:11;;;;;;;2.90;2.70;;;23.30;68.80;;;-142.21;97.53;112049.66;5111556;28;20206;-78
2022/06/30 05:42:39;;;;;;;3.63;2.77;;;23.30;68.30;;;-142.21;97.14;112049.66;5112698;28;20295;-78
2022/06/30 05:45:07;;;;;;;3.47;2.90;;;23.40;67.70;;;-142.21;95.62;112049.66;5111786;28;20229;-79
2022/06/30 05:47:35;;;;;;;3.70;2.77;;;23.60;67.10;;;-142.21;95.18;112049.66;5114641;28;20252;-79
2022/06/30 05:50:02;;;;;;;2.90;2.70;;;23.60;66.40;;;-142.21;93.57;112049.66;5115416;28;20617;-78
2022/06/30 05:52:29;;;;;;;4.80;2.90;;;23.70;65.80;;;-142.21;93.77;112049.66;5115820;28;20264;-78
2022/06/30 05:54:57;;;;;;;2.57;2.37;;;23.80;65.70;;;-142.21;92.50;112049.66;5115082;28;20200;-77
2022/06/30 05:57:25;;;;;;;3.90;2.70;;;23.90;64.80;;;-142.21;93.02;112049.66;5115906;28;20236;-79
2022/06/30 05:59:52;;;;;;;4.07;2.77;;;24.00;65.10;;;-142.21;93.55;112049.66;5115896;28;20241;-78
2022/06/30 06:02:19;;;;;;;2.87;2.63;;;24.10;65.00;;;-142.21;95.32;112049.66;5115232;28;20223;-78
2022/06/30 06:04:46;;;;;;;3.07;2.87;;;24.10;65.50;;;-142.21;93.66;112049.66;5115274;28;20211;-79
2022/06/30 06:07:13;;;;;;;3.10;2.80;;;24.30;64.90;;;-142.21;94.07;112049.66;5114246;28;20267;-78
2022/06/30 06:09:40;;;;;;;6.03;2.97;;;24.30;64.90;;;-142.21;93.74;112049.66;5114683;28;20323;-78
2022/06/30 06:12:10;;;;;;;4.07;2.97;;;24.40;64.90;;;-142.21;94.10;112049.66;5114622;28;20210;-76
2022/06/30 06:14:37;;;;;;;5.37;3.03;;;24.40;65.10;;;-142.21;92.93;112049.66;5115374;28;20218;-78
2022/06/30 06:17:05;;;;;;;3.50;2.50;;;24.40;64.70;;;-142.21;91.43;112049.66;5114832;28;20207;-78
2022/06/30 06:19:32;;;;;;;3.13;2.80;;;24.40;64.30;;;-142.21;90.66;112049.66;5097174;28;20188;-77
2022/06/30 06:22:00;;;;;;;4.30;3.07;;;24.50;63.90;;;-142.21;91.36;112049.66;5114671;28;20264;-78
2022/06/30 06:24:27;;;;;;;3.93;2.80;;;24.50;64.30;;;-142.21;91.59;112049.66;5114884;28;20203;-75
2022/06/30 06:26:55;;;;;;;2.97;2.70;;;24.60;64.50;;;-142.21;91.24;112049.66;5115559;28;20211;-76
2022/06/30 06:29:23;;;;;;;3.37;3.00;;;24.70;64.20;;;-142.21;90.35;112049.66;5115046;28;20223;-76
2022/06/30 06:31:50;;;;;;;3.90;2.97;;;24.90;63.60;;;-142.21;89.46;112049.66;5114909;28;20250;-79
2022/06/30 06:34:18;;;;;;;2.90;2.63;;;24.90;63.20;;;-142.21;88.79;112049.66;5114450;28;20216;-79
2022/06/30 06:36:45;;;;;;;2.70;2.50;;;25.00;62.90;;;-142.21;87.98;112049.66;5115015;28;20238;-78
2022/06/30 06:39:12;;;;;;;2.40;2.20;;;25.10;62.50;;;-142.21;86.89;112049.66;5113683;28;20652;-79
2022/06/30 06:41:39;;;;;;;3.40;2.70;;;25.20;61.90;;;-142.21;85.07;112049.66;5115029;28;20379;-79
2022/06/30 06:44:07;;;;;;;3.00;2.70;;;25.20;60.80;;;-142.21;85.81;112049.66;5114458;28;20252;-80
2022/06/30 06:46:35;;;;;;;3.70;2.77;;;25.30;60.80;;;-142.21;86.70;112049.66;5114593;28;20248;-80
2022/06/30 06:49:06;;;;;;;3.20;2.53;;;25.40;61.00;;;-142.21;85.95;112049.66;5116629;28;20223;-77
2022/06/30 06:51:34;;;;;;;3.83;2.50;;;25.50;60.80;;;-142.21;87.86;112049.66;5096572;28;20219;-78
2022/06/30 06:54:01;;;;;;;2.50;2.30;;;25.60;61.60;;;-142.21;85.90;112049.66;5113737;28;20195;-79
2022/06/30 06:56:29;;;;;;;3.00;2.80;;;25.80;60.60;;;-142.21;87.35;112049.66;5114919;28;20539;-80
2022/06/30 06:58:56;;;;;;;3.33;2.80;;;25.90;61.40;;;-142.21;86.02;112049.66;5114211;28;20234;-79
2022/06/30 07:01:24;;;;;;;3.47;2.30;;;26.00;61.10;;;-142.21;87.36;112049.66;5114321;28;20243;-80
2022/06/30 07:03:52;;;;;;;2.67;2.47;;;26.10;60.70;;;-142.21;87.09;112049.66;5114126;28;20228;-80
2022/06/30 07:06:19;;;;;;;2.47;2.27;;;26.30;60.60;;;-142.21;86.11;112049.66;5113967;28;20227;-78
2022/06/30 07:08:47;;;;;;;2.63;2.23;;;26.30;59.80;;;-142.21;87.08;112049.66;5113641;28;20568;-80
2022/06/30 07:11:14;;;;;;;3.03;2.47;;;26.40;60.10;;;-142.21;87.65;112049.66;5095653;28;20196;-78
2022/06/30 07:13:41;;;;;;;5.03;2.80;;;26.50;60.50;;;-142.21;90.74;112049.66;5114130;28;20229;-79
2022/06/30 07:16:08;;;;;;;2.40;2.10;;;26.60;61.30;;;-142.21;85.87;112049.66;5113534;28;20235;-80
2022/06/30 07:18:35;;;;;;;4.73;2.40;;;26.70;59.70;;;-142.21;85.01;112049.66;5114469;28;20294;-78
2022/06/30 07:21:04;;;;;;;2.70;2.50;;;26.70;59.20;;;-142.21;86.60;112049.66;5113907;28;20208;-79
2022/06/30 07:23:32;;;;;;;3.40;2.63;;;26.80;59.70;;;-142.21;85.68;112049.66;5114020;28;20291;-80
2022/06/30 07:25:59;;;;;;;3.97;2.90;;;27.00;59.50;;;-142.21;84.70;112049.66;5113880;28;20203;-79
2022/06/30 07:28:27;;;;;;;3.47;2.80;;;27.00;59.10;;;-142.21;85.53;112049.66;5113832;28;20195;-79
2022/06/30 07:30:54;;;;;;;3.93;3.20;;;27.10;60.00;;;-142.21;87.85;112049.66;5113991;28;20699;-78
2022/06/30 07:33:21;;;;;;;4.87;3.13;;;27.20;60.00;;;-142.21;87.33;112049.66;5113033;28;20203;-79
2022/06/30 07:35:49;;;;;;;4.70;3.30;;;27.30;59.80;;;-142.21;88.00;112049.66;5113819;28;20245;-79
2022/06/30 07:38:17;;;;;;;3.50;2.90;;;27.40;60.00;;;-142.21;89.22;112049.66;5113353;28;20203;-77
2022/06/30 07:40:45;;;;;;;5.00;2.67;;;27.60;60.90;;;-142.21;88.52;112049.66;5113797;28;20656;-80
2022/06/30 07:43:12;;;;;;;4.33;3.13;;;27.70;60.10;;;-142.21;87.16;112049.66;5113006;28;20605;-79
2022/06/30 07:45:40;;;;;;;4.93;2.70;;;27.70;59.30;;;-142.21;88.07;112049.66;5113509;28;20205;-79
2022/06/30 07:48:07;;;;;;;6.83;3.00;;;27.80;59.80;;;-142.21;89.52;112049.66;5112833;28;20197;-78
2022/06/30 07:50:35;;;;;;;3.27;2.97;;;28.00;60.20;;;-142.21;89.50;112049.66;5113075;28;20246;-79
2022/06/30 07:53:02;;;;;;;3.13;2.47;;;28.10;60.50;;;-142.21;88.70;112049.66;5112623;28;20237;-80
2022/06/30 07:55:30;;;;;;;3.70;2.93;;;28.30;60.00;;;-142.21;88.51;112049.66;5113512;28;20253;-79
2022/06/30 07:57:58;;;;;;;3.90;2.60;;;28.40;59.80;;;-142.21;86.74;112049.66;5113285;28;20711;-79
2022/06/30 08:00:25;;;;;;;3.50;2.67;;;28.40;59.30;;;-142.21;81.63;112049.66;5112887;28;20257;-78
2022/06/30 08:02:53;;;;;;;4.40;3.00;;;28.50;57.80;;;-142.21;84.28;112049.66;5113119;28;20222;-79
2022/06/30 08:05:20;;;;;;;4.37;2.70;;;28.60;58.40;;;-142.21;81.04;112049.66;5112297;28;20214;-79
2022/06/30 08:07:48;;;;;;;4.50;3.07;;;28.70;57.30;;;-142.21;82.63;112049.66;5113383;28;20204;-79
2022/06/30 08:10:16;;;;;;;4.70;2.70;;;28.80;57.90;;;-142.21;83.64;112049.66;5111448;28;20290;-80
2022/06/30 08:12:45;;;;;;;4.07;2.70;;;28.90;58.10;;;-142.21;84.52;112049.66;5113472;28;20680;-78
2022/06/30 08:15:12;;;;;;;6.00;3.13;;;28.90;58.20;;;-142.21;84.35;112049.66;5112710;28;20229;-79
2022/06/30 08:17:40;;;;;;;3.70;3.00;;;29.10;58.20;;;-142.21;79.35;112049.66;5112846;28;20694;-80
2022/06/30 08:20:08;;;;;;;2.87;2.60;;;29.20;56.90;;;-142.21;81.03;112049.66;5112150;28;20211;-81
2022/06/30 08:22:35;;;;;;;3.57;2.70;;;29.30;57.20;;;-142.21;79.79;112049.66;5113359;28;20242;-79
2022/06/30 08:25:03;;;;;;;2.83;2.30;;;29.40;56.80;;;-142.21;82.68;112049.66;5112723;28;20285;-82
2022/06/30 08:27:31;;;;;;;4.63;2.80;;;29.50;57.40;;;-142.21;82.61;112049.66;5112847;28;20255;-81
2022/06/30 08:29:59;;;;;;;4.73;2.83;;;29.60;57.30;;;-142.21;80.24;112049.66;5112675;28;20318;-79
2022/06/30 08:32:27;;;;;;;3.80;2.90;;;29.70;56.50;;;-142.21;78.75;112049.66;5112126;28;20691;-80
2022/06/30 08:34:54;;;;;;;4.43;3.17;;;29.80;56.00;;;-142.21;79.48;112049.66;5112413;28;20241;-81
2022/06/30 08:37:21;;;;;;;3.17;2.63;;;29.90;56.30;;;-142.21;78.24;112049.66;5112517;28;20206;-79
2022/06/30 08:42:36;;;;;;;4.17;3.20;;;30.10;56.00;;;-142.21;78.44;112049.66;5112903;28;20190;-78
2022/06/30 08:45:14;;;;;;;4.50;2.70;;;30.10;55.90;;;-142.21;77.05;112049.66;5112860;28;20195;-78
2022/06/30 08:47:43;;;;;;;3.93;2.40;;;30.20;55.50;;;-142.21;75.45;112049.66;5112923;28;20613;-79
2022/06/30 08:50:13;;;;;;;5.33;2.80;;;30.30;54.90;;;-142.21;73.38;112049.66;5111958;28;20315;-84
2022/06/30 08:52:46;;;;;;;5.20;3.00;;;30.40;54.50;;;-142.21;74.44;112049.66;5113240;28;20227;-80
2022/06/30 08:55:16;;;;;;;3.87;2.80;;;30.40;54.70;;;-142.21;68.05;112049.66;5112360;28;20632;-82
2022/06/30 08:57:46;;;;;;;3.97;2.83;;;30.40;53.50;;;-142.21;66.43;112049.66;5112877;28;20557;-80
2022/06/30 09:00:18;;;;;;;3.77;2.87;;;30.50;53.10;;;-142.21;70.50;112049.66;5112273;28;20207;-80
2022/06/30 09:02:46;;;;;;;5.40;3.00;;;30.60;53.60;;;-142.21;74.71;112049.66;5112534;28;20624;-80
2022/06/30 09:05:15;;;;;;;6.90;2.83;;;30.70;54.40;;;-142.21;72.09;112049.66;5112152;28;20309;-78
2022/06/30 09:07:42;;;;;;;3.93;2.70;;;30.80;54.10;;;-142.21;62.21;112049.66;5112804;28;20667;-79
2022/06/30 09:10:10;;;;;;;9.73;3.50;;;30.80;52.00;;;-142.21;68.53;112049.66;5111721;28;20236;-80
2022/06/30 09:12:38;;;;;;;3.30;3.00;;;30.90;53.10;;;-142.21;70.41;112049.66;5112684;28;20239;-78
2022/06/30 09:15:06;;;;;;;2.87;2.67;;;31.00;53.40;;;-142.21;70.07;112049.66;5112603;28;20207;-79
2022/06/30 09:17:35;;;;;;;3.37;3.07;;;31.10;53.30;;;-142.21;68.73;112049.66;5112207;28;20238;-79
2022/06/30 09:20:07;;;;;;;3.37;2.93;;;31.20;53.00;;;-142.21;64.00;112049.66;5112628;28;20211;-78
2022/06/30 09:22:38;;;;;;;3.30;2.73;;;31.30;51.90;;;-142.21;66.96;112049.66;5116600;28;20191;-80
2022/06/30 09:25:09;;;;;;;3.37;3.07;;;31.40;52.70;;;-142.21;65.35;112049.66;5116564;28;20203;-78
2022/06/30 09:27:39;;;;;;;3.93;2.83;;;31.50;52.90;;;-142.21;59.91;112049.66;5116300;28;20205;-77
2022/06/30 09:30:10;;;;;;;5.17;3.27;;;31.50;50.90;;;-142.21;57.54;112049.66;5115671;28;20561;-78
2022/06/30 09:32:53;;;;;;;3.80;2.90;;;31.60;50.00;;;-142.21;55.21;112049.66;5115835;28;20199;-79
2022/06/30 09:35:23;;;;;;;3.97;2.80;;;31.50;48.50;;;-142.21;62.83;112049.66;5115781;28;20223;-79
2022/06/30 09:38:04;;;;;;;2.67;2.40;;;31.50;51.10;;;-142.21;65.60;112049.66;5116198;28;20207;-79
2022/06/30 09:40:34;;;;;;;3.40;2.70;;;31.70;52.10;;;-142.21;64.60;112049.66;5115735;28;20581;-78
2022/06/30 09:43:02;;;;;;;5.30;3.13;;;31.90;51.90;;;-142.21;57.06;112049.66;5115949;28;20225;-81
2022/06/30 09:45:38;;;;;;;2.93;2.70;;;32.10;50.10;;;-142.21;55.59;112049.66;5115117;28;20252;-79
2022/06/30 09:48:09;;;;;;;4.10;3.10;;;32.10;48.90;;;-142.21;52.32;112049.66;5115822;28;20624;-78
2022/06/30 09:50:37;;;;;;;4.90;2.50;;;32.20;48.40;;;-142.21;52.82;112049.66;5116070;28;20223;-77
2022/06/30 09:53:10;;;;;;;2.77;2.57;;;32.30;48.50;;;-142.21;53.54;112049.66;5116137;28;20620;-81
2022/06/30 09:55:44;;;;;;;2.50;2.30;;;32.40;48.10;;;-142.21;47.76;112049.66;5116432;28;20192;-78
2022/06/30 09:58:13;;;;;;;2.70;2.50;;;32.50;47.40;;;-142.21;47.26;112049.66;5115293;28;20184;-82
2022/06/30 10:00:50;;;;;;;2.80;2.60;;;32.40;46.20;;;-142.21;47.92;112049.66;5115482;28;20208;-78
2022/06/30 10:03:20;;;;;;;5.00;2.83;;;32.40;45.90;;;-142.21;49.13;112049.66;5113128;28;20262;-80
2022/06/30 10:05:49;;;;;;;2.87;2.67;;;32.40;46.50;;;-142.21;52.00;112049.66;5115411;28;20751;-79
2022/06/30 10:08:19;;;;;;;3.17;2.87;;;32.50;47.70;;;-142.21;46.15;112049.66;5114917;28;20238;-79
2022/06/30 10:10:47;;;;;;;3.50;2.73;;;32.50;45.50;;;-142.21;44.69;112049.66;5115250;28;20204;-79
2022/06/30 10:13:18;;;;;;;3.57;2.53;;;32.30;44.60;;;-142.21;46.89;112049.66;5114537;28;20208;-82
2022/06/30 10:15:53;;;;;;;4.20;2.57;;;32.30;46.10;;;-142.21;45.54;112049.66;5114981;28;20183;-81
2022/06/30 10:18:25;;;;;;;4.90;2.83;;;32.40;45.90;;;-142.21;48.49;112049.66;5114997;28;20266;-80
2022/06/30 10:20:54;;;;;;;3.63;2.90;;;32.40;46.70;;;-142.21;49.62;112049.66;5115105;28;20200;-80
2022/06/30 10:23:24;;;;;;;2.93;2.73;;;32.60;47.00;;;-142.21;51.20;112049.66;5114788;28;20400;-79
2022/06/30 10:25:54;;;;;;;3.17;2.60;;;32.80;47.30;;;-142.21;46.63;112049.66;5115104;28;20801;-81
2022/06/30 10:28:23;;;;;;;3.40;2.67;;;32.90;45.50;;;-142.21;44.08;112049.66;5114787;28;20208;-79
2022/06/30 10:31:09;;;;;;;2.80;2.60;;;32.90;44.30;;;-142.21;44.92;112049.66;5114560;28;20263;-80
2022/06/30 10:33:53;;;;;;;2.70;2.50;;;32.90;44.60;;;-142.21;44.25;112049.66;5114498;28;20222;-81
2022/06/30 10:36:25;;;;;;;3.17;2.80;;;32.80;44.30;;;-142.21;42.10;112049.66;5114576;28;20192;-81